sensor_id;sensor_type;location;lat;lon;timestamp;pressure;altitude;pressure_sealevel;temperature;humidity
71145;BME280;58812;47.698;17.726;2022-07-06T00:00:53;100406.69;;;16.19;87.79
71145;BME280;58812;47.698;17.726;2022-07-06T00:03:18;100407.88;;;16.16;87.71
71145;BME280;58812;47.698;17.726;2022-07-06T00:05:44;100421.38;;;16.16;88.03
71145;BME280;58812;47.698;17.726;2022-07-06T00:08:09;100421.75;;;16.13;87.73
71145;BME280;58812;47.698;17.726;2022-07-06T00:10:34;100421.91;;;16.12;87.52
71145;BME280;58812;47.698;17.726;2022-07-06T00:13:00;100413.34;;;16.08;87.12
71145;BME280;58812;47.698;17.726;2022-07-06T00:15:25;100414.53;;;16.06;86.92
71145;BME280;58812;47.698;17.726;2022-07-06T00:17:51;100420.22;;;16.11;86.41
71145;BME280;58812;47.698;17.726;2022-07-06T00:20:16;100416.69;;;16.10;86.13
71145;BME280;58812;47.698;17.726;2022-07-06T00:22:41;100420.41;;;16.09;86.03
71145;BME280;58812;47.698;17.726;2022-07-06T00:25:07;100414.19;;;16.09;85.61
71145;BME280;58812;47.698;17.726;2022-07-06T00:27:33;100411.00;;;16.05;85.91
71145;BME280;58812;47.698;17.726;2022-07-06T00:29:58;100404.75;;;16.05;85.83
71145;BME280;58812;47.698;17.726;2022-07-06T00:32:24;100402.94;;;15.97;85.59
71145;BME280;58812;47.698;17.726;2022-07-06T00:34:50;100411.38;;;15.94;85.64
71145;BME280;58812;47.698;17.726;2022-07-06T00:37:16;100411.56;;;15.92;85.91
71145;BME280;58812;47.698;17.726;2022-07-06T00:39:41;100412.59;;;15.91;85.47
71145;BME280;58812;47.698;17.726;2022-07-06T00:42:07;100410.41;;;15.87;85.36
71145;BME280;58812;47.698;17.726;2022-07-06T00:44:32;100410.59;;;15.85;85.11
71145;BME280;58812;47.698;17.726;2022-07-06T00:46:59;100407.25;;;15.83;85.21
71145;BME280;58812;47.698;17.726;2022-07-06T00:49:24;100405.09;;;15.79;85.34
71145;BME280;58812;47.698;17.726;2022-07-06T00:52:09;100406.94;;;15.78;85.30
71145;BME280;58812;47.698;17.726;2022-07-06T00:54:36;100408.97;;;15.76;85.15
71145;BME280;58812;47.698;17.726;2022-07-06T00:57:01;100406.75;;;15.80;85.30
71145;BME280;58812;47.698;17.726;2022-07-06T00:59:28;100413.87;;;15.72;85.37
71145;BME280;58812;47.698;17.726;2022-07-06T01:01:53;100417.09;;;15.68;85.30
71145;BME280;58812;47.698;17.726;2022-07-06T01:04:19;100419.63;;;15.61;85.59
71145;BME280;58812;47.698;17.726;2022-07-06T01:06:47;100417.63;;;15.55;85.70
71145;BME280;58812;47.698;17.726;2022-07-06T01:09:13;100412.56;;;15.52;85.68
71145;BME280;58812;47.698;17.726;2022-07-06T01:11:39;100424.38;;;15.51;85.42
71145;BME280;58812;47.698;17.726;2022-07-06T01:14:05;100431.84;;;15.49;85.06
71145;BME280;58812;47.698;17.726;2022-07-06T01:16:31;100418.03;;;15.44;84.93
71145;BME280;58812;47.698;17.726;2022-07-06T01:18:56;100427.13;;;15.43;85.05
71145;BME280;58812;47.698;17.726;2022-07-06T01:21:22;100420.06;;;15.42;84.67
71145;BME280;58812;47.698;17.726;2022-07-06T01:23:48;100429.12;;;15.41;84.29
71145;BME280;58812;47.698;17.726;2022-07-06T01:26:15;100434.22;;;15.44;84.42
71145;BME280;58812;47.698;17.726;2022-07-06T01:28:43;100430.84;;;15.42;84.07
71145;BME280;58812;47.698;17.726;2022-07-06T01:31:34;100438.94;;;15.42;84.08
71145;BME280;58812;47.698;17.726;2022-07-06T01:34:00;100441.97;;;15.39;83.83
71145;BME280;58812;47.698;17.726;2022-07-06T01:36:25;100433.22;;;15.37;83.69
71145;BME280;58812;47.698;17.726;2022-07-06T01:38:52;100444.34;;;15.34;83.93
71145;BME280;58812;47.698;17.726;2022-07-06T01:41:18;100441.00;;;15.32;84.11
71145;BME280;58812;47.698;17.726;2022-07-06T01:43:44;100441.81;;;15.32;83.94
71145;BME280;58812;47.698;17.726;2022-07-06T01:46:10;100442.34;;;15.28;84.21
71145;BME280;58812;47.698;17.726;2022-07-06T01:48:36;100432.91;;;15.23;84.27
71145;BME280;58812;47.698;17.726;2022-07-06T01:51:02;100437.81;;;15.20;84.50
71145;BME280;58812;47.698;17.726;2022-07-06T01:53:27;100433.59;;;15.26;84.43
71145;BME280;58812;47.698;17.726;2022-07-06T01:55:53;100429.22;;;15.25;84.17
71145;BME280;58812;47.698;17.726;2022-07-06T01:58:18;100436.94;;;15.28;84.00
71145;BME280;58812;47.698;17.726;2022-07-06T02:00:44;100430.06;;;15.25;84.15
71145;BME280;58812;47.698;17.726;2022-07-06T02:03:09;100431.22;;;15.22;84.36
71145;BME280;58812;47.698;17.726;2022-07-06T02:05:34;100422.81;;;15.17;84.28
71145;BME280;58812;47.698;17.726;2022-07-06T02:08:00;100431.91;;;15.16;84.69
71145;BME280;58812;47.698;17.726;2022-07-06T02:10:25;100428.38;;;15.16;84.60
71145;BME280;58812;47.698;17.726;2022-07-06T02:12:50;100436.97;;;15.11;84.92
71145;BME280;58812;47.698;17.726;2022-07-06T02:15:16;100436.97;;;15.11;85.33
71145;BME280;58812;47.698;17.726;2022-07-06T02:17:41;100439.53;;;15.05;84.88
71145;BME280;58812;47.698;17.726;2022-07-06T02:20:07;100437.84;;;15.04;84.96
71145;BME280;58812;47.698;17.726;2022-07-06T02:22:33;100439.38;;;14.98;85.28
71145;BME280;58812;47.698;17.726;2022-07-06T02:24:58;100441.03;;;14.99;85.19
71145;BME280;58812;47.698;17.726;2022-07-06T02:27:24;100442.06;;;14.98;84.91
71145;BME280;58812;47.698;17.726;2022-07-06T02:29:50;100443.41;;;15.02;84.24
71145;BME280;58812;47.698;17.726;2022-07-06T02:32:16;100445.75;;;15.05;84.01
71145;BME280;58812;47.698;17.726;2022-07-06T02:34:41;100457.87;;;15.09;83.89
71145;BME280;58812;47.698;17.726;2022-07-06T02:37:07;100448.44;;;15.13;83.11
71145;BME280;58812;47.698;17.726;2022-07-06T02:39:32;100453.00;;;15.13;83.53
71145;BME280;58812;47.698;17.726;2022-07-06T02:41:57;100455.84;;;15.11;82.84
71145;BME280;58812;47.698;17.726;2022-07-06T02:44:23;100464.13;;;15.18;82.71
71145;BME280;58812;47.698;17.726;2022-07-06T02:46:48;100463.09;;;15.19;82.50
71145;BME280;58812;47.698;17.726;2022-07-06T02:49:13;100460.87;;;15.22;82.38
71145;BME280;58812;47.698;17.726;2022-07-06T02:51:39;100464.59;;;15.21;82.25
71145;BME280;58812;47.698;17.726;2022-07-06T02:54:04;100463.59;;;15.22;82.08
71145;BME280;58812;47.698;17.726;2022-07-06T02:56:30;100469.50;;;15.26;81.78
71145;BME280;58812;47.698;17.726;2022-07-06T02:58:55;100475.53;;;15.28;81.36
71145;BME280;58812;47.698;17.726;2022-07-06T03:01:21;100474.37;;;15.31;80.58
71145;BME280;58812;47.698;17.726;2022-07-06T03:03:46;100462.56;;;15.32;80.24
71145;BME280;58812;47.698;17.726;2022-07-06T03:06:11;100472.53;;;15.31;80.55
71145;BME280;58812;47.698;17.726;2022-07-06T03:08:37;100467.13;;;15.31;80.60
71145;BME280;58812;47.698;17.726;2022-07-06T03:11:02;100468.28;;;15.29;79.99
71145;BME280;58812;47.698;17.726;2022-07-06T03:13:28;100465.28;;;15.32;79.96
71145;BME280;58812;47.698;17.726;2022-07-06T03:15:54;100454.81;;;15.29;79.92
71145;BME280;58812;47.698;17.726;2022-07-06T03:18:19;100457.50;;;15.29;80.02
71145;BME280;58812;47.698;17.726;2022-07-06T03:20:45;100451.78;;;15.23;79.82
71145;BME280;58812;47.698;17.726;2022-07-06T03:23:10;100456.19;;;15.25;80.06
71145;BME280;58812;47.698;17.726;2022-07-06T03:25:36;100459.22;;;15.21;79.96
71145;BME280;58812;47.698;17.726;2022-07-06T03:28:01;100453.63;;;15.23;80.00
71145;BME280;58812;47.698;17.726;2022-07-06T03:30:26;100454.47;;;15.23;80.08
71145;BME280;58812;47.698;17.726;2022-07-06T03:32:52;100457.34;;;15.22;80.10
71145;BME280;58812;47.698;17.726;2022-07-06T03:35:18;100458.38;;;15.21;79.91
71145;BME280;58812;47.698;17.726;2022-07-06T03:37:43;100459.53;;;15.27;79.92
71145;BME280;58812;47.698;17.726;2022-07-06T03:40:09;100462.91;;;15.29;79.63
71145;BME280;58812;47.698;17.726;2022-07-06T03:42:36;100456.47;;;15.30;79.55
71145;BME280;58812;47.698;17.726;2022-07-06T03:45:03;100454.66;;;15.30;79.48
71145;BME280;58812;47.698;17.726;2022-07-06T03:47:28;100448.91;;;15.33;79.24
71145;BME280;58812;47.698;17.726;2022-07-06T03:49:53;100446.34;;;15.40;79.40
71145;BME280;58812;47.698;17.726;2022-07-06T03:52:19;100448.72;;;15.43;79.55
71145;BME280;58812;47.698;17.726;2022-07-06T03:54:44;100449.72;;;15.42;79.61
71145;BME280;58812;47.698;17.726;2022-07-06T03:57:10;100441.28;;;15.45;79.60
71145;BME280;58812;47.698;17.726;2022-07-06T03:59:38;100433.84;;;15.47;79.88
71145;BME280;58812;47.698;17.726;2022-07-06T04:02:04;100445.28;;;15.57;79.26
71145;BME280;58812;47.698;17.726;2022-07-06T04:04:29;100432.09;;;15.70;78.57
71145;BME280;58812;47.698;17.726;2022-07-06T04:06:54;100440.97;;;15.87;78.54
71145;BME280;58812;47.698;17.726;2022-07-06T04:09:20;100436.31;;;16.04;78.03
71145;BME280;58812;47.698;17.726;2022-07-06T04:11:45;100430.13;;;16.18;78.05
71145;BME280;58812;47.698;17.726;2022-07-06T04:14:11;100431.44;;;16.31;77.62
71145;BME280;58812;47.698;17.726;2022-07-06T04:16:36;100432.63;;;16.51;77.04
71145;BME280;58812;47.698;17.726;2022-07-06T04:19:01;100425.12;;;16.61;76.53
71145;BME280;58812;47.698;17.726;2022-07-06T04:21:27;100435.16;;;16.75;76.46
71145;BME280;58812;47.698;17.726;2022-07-06T04:23:52;100445.88;;;16.83;75.46
71145;BME280;58812;47.698;17.726;2022-07-06T04:26:18;100447.34;;;17.09;75.63
71145;BME280;58812;47.698;17.726;2022-07-06T04:28:43;100448.19;;;17.24;75.31
71145;BME280;58812;47.698;17.726;2022-07-06T04:31:08;100449.97;;;17.17;74.88
71145;BME280;58812;47.698;17.726;2022-07-06T04:33:34;100446.22;;;17.48;74.06
71145;BME280;58812;47.698;17.726;2022-07-06T04:35:59;100447.66;;;17.44;74.19
71145;BME280;58812;47.698;17.726;2022-07-06T04:38:25;100448.38;;;17.52;74.22
71145;BME280;58812;47.698;17.726;2022-07-06T04:40:50;100459.78;;;17.77;73.30
71145;BME280;58812;47.698;17.726;2022-07-06T04:43:16;100460.41;;;18.09;72.73
71145;BME280;58812;47.698;17.726;2022-07-06T04:45:41;100457.25;;;18.27;71.98
71145;BME280;58812;47.698;17.726;2022-07-06T04:48:06;100466.94;;;18.36;71.34
71145;BME280;58812;47.698;17.726;2022-07-06T04:50:33;100464.41;;;18.56;70.58
71145;BME280;58812;47.698;17.726;2022-07-06T04:52:59;100467.22;;;18.62;70.68
71145;BME280;58812;47.698;17.726;2022-07-06T04:55:24;100468.50;;;18.88;69.65
71145;BME280;58812;47.698;17.726;2022-07-06T04:57:49;100473.84;;;19.03;68.88
71145;BME280;58812;47.698;17.726;2022-07-06T05:00:17;100475.09;;;19.28;68.94
71145;BME280;58812;47.698;17.726;2022-07-06T05:02:42;100482.25;;;19.64;67.95
71145;BME280;58812;47.698;17.726;2022-07-06T05:05:08;100476.00;;;19.70;67.25
71145;BME280;58812;47.698;17.726;2022-07-06T05:07:35;100480.75;;;19.61;66.54
71145;BME280;58812;47.698;17.726;2022-07-06T05:10:08;100480.78;;;19.68;66.91
71145;BME280;58812;47.698;17.726;2022-07-06T05:12:34;100472.53;;;19.55;67.17
71145;BME280;58812;47.698;17.726;2022-07-06T05:14:59;100475.59;;;19.73;66.55
71145;BME280;58812;47.698;17.726;2022-07-06T05:17:25;100473.56;;;19.82;65.40
71145;BME280;58812;47.698;17.726;2022-07-06T05:19:50;100477.87;;;20.17;65.71
71145;BME280;58812;47.698;17.726;2022-07-06T05:22:16;100483.00;;;19.58;66.41
71145;BME280;58812;47.698;17.726;2022-07-06T05:24:41;100494.56;;;20.08;65.20
71145;BME280;58812;47.698;17.726;2022-07-06T05:27:07;100498.41;;;20.26;64.94
71145;BME280;58812;47.698;17.726;2022-07-06T05:29:32;100509.53;;;20.45;63.85
71145;BME280;58812;47.698;17.726;2022-07-06T05:31:58;100509.44;;;20.12;64.97
71145;BME280;58812;47.698;17.726;2022-07-06T05:34:23;100516.66;;;19.91;65.10
71145;BME280;58812;47.698;17.726;2022-07-06T05:36:48;100515.37;;;19.87;65.45
71145;BME280;58812;47.698;17.726;2022-07-06T05:39:14;100513.56;;;20.56;63.21
71145;BME280;58812;47.698;17.726;2022-07-06T05:41:44;100520.59;;;20.30;63.84
71145;BME280;58812;47.698;17.726;2022-07-06T05:44:09;100521.94;;;20.54;63.78
71145;BME280;58812;47.698;17.726;2022-07-06T05:46:35;100523.78;;;20.40;62.87
71145;BME280;58812;47.698;17.726;2022-07-06T05:49:00;100525.84;;;19.90;63.53
71145;BME280;58812;47.698;17.726;2022-07-06T05:51:44;100528.25;;;20.81;61.63
71145;BME280;58812;47.698;17.726;2022-07-06T05:54:09;100528.09;;;20.89;61.69
71145;BME280;58812;47.698;17.726;2022-07-06T05:56:35;100527.03;;;20.97;61.17
71145;BME280;58812;47.698;17.726;2022-07-06T05:59:00;100529.78;;;21.43;60.22
71145;BME280;58812;47.698;17.726;2022-07-06T06:01:26;100542.16;;;21.59;58.92
71145;BME280;58812;47.698;17.726;2022-07-06T06:03:51;100546.75;;;21.65;57.80
71145;BME280;58812;47.698;17.726;2022-07-06T06:06:17;100547.16;;;21.16;60.16
71145;BME280;58812;47.698;17.726;2022-07-06T06:08:42;100546.06;;;21.90;57.61
71145;BME280;58812;47.698;17.726;2022-07-06T06:11:07;100548.66;;;21.31;57.76
71145;BME280;58812;47.698;17.726;2022-07-06T06:13:33;100555.31;;;21.16;57.95
71145;BME280;58812;47.698;17.726;2022-07-06T06:15:58;100545.72;;;21.59;57.05
71145;BME280;58812;47.698;17.726;2022-07-06T06:18:24;100541.66;;;21.75;57.45
71145;BME280;58812;47.698;17.726;2022-07-06T06:20:49;100540.56;;;22.09;55.02
71145;BME280;58812;47.698;17.726;2022-07-06T06:23:14;100540.41;;;22.81;54.55
71145;BME280;58812;47.698;17.726;2022-07-06T06:25:40;100532.13;;;22.62;54.89
71145;BME280;58812;47.698;17.726;2022-07-06T06:28:07;100533.97;;;22.37;55.02
71145;BME280;58812;47.698;17.726;2022-07-06T06:30:33;100524.81;;;22.11;53.99
71145;BME280;58812;47.698;17.726;2022-07-06T06:35:41;100543.50;;;23.23;52.43
71145;BME280;58812;47.698;17.726;2022-07-06T06:38:06;100533.34;;;23.30;51.33
71145;BME280;58812;47.698;17.726;2022-07-06T06:40:32;100533.41;;;23.48;51.09
71145;BME280;58812;47.698;17.726;2022-07-06T06:42:57;100535.50;;;23.46;51.01
71145;BME280;58812;47.698;17.726;2022-07-06T06:45:23;100531.03;;;24.32;49.52
71145;BME280;58812;47.698;17.726;2022-07-06T06:47:48;100529.50;;;24.17;50.23
71145;BME280;58812;47.698;17.726;2022-07-06T06:50:14;100538.44;;;24.61;48.23
71145;BME280;58812;47.698;17.726;2022-07-06T06:52:39;100540.47;;;23.99;48.98
71145;BME280;58812;47.698;17.726;2022-07-06T06:55:05;100529.31;;;23.57;49.75
71145;BME280;58812;47.698;17.726;2022-07-06T06:57:31;100547.75;;;24.05;49.30
71145;BME280;58812;47.698;17.726;2022-07-06T06:59:56;100553.91;;;24.19;49.49
71145;BME280;58812;47.698;17.726;2022-07-06T07:02:22;100551.09;;;24.07;49.97
71145;BME280;58812;47.698;17.726;2022-07-06T07:04:48;100559.00;;;24.15;49.37
71145;BME280;58812;47.698;17.726;2022-07-06T07:07:13;100551.09;;;24.07;48.90
71145;BME280;58812;47.698;17.726;2022-07-06T07:09:39;100547.38;;;23.58;49.93
71145;BME280;58812;47.698;17.726;2022-07-06T07:12:04;100554.22;;;23.49;50.41
71145;BME280;58812;47.698;17.726;2022-07-06T07:14:30;100551.88;;;23.28;50.18
71145;BME280;58812;47.698;17.726;2022-07-06T07:16:55;100550.31;;;23.63;49.92
71145;BME280;58812;47.698;17.726;2022-07-06T07:19:21;100543.59;;;23.09;50.76
71145;BME280;58812;47.698;17.726;2022-07-06T07:21:46;100550.31;;;22.75;51.39
71145;BME280;58812;47.698;17.726;2022-07-06T07:24:11;100543.88;;;23.01;52.14
71145;BME280;58812;47.698;17.726;2022-07-06T07:26:37;100540.09;;;22.26;52.48
71145;BME280;58812;47.698;17.726;2022-07-06T07:29:02;100549.13;;;22.20;53.23
71145;BME280;58812;47.698;17.726;2022-07-06T07:31:28;100552.50;;;22.08;54.01
71145;BME280;58812;47.698;17.726;2022-07-06T07:33:53;100548.81;;;22.79;52.71
71145;BME280;58812;47.698;17.726;2022-07-06T07:36:22;100552.56;;;23.41;50.86
71145;BME280;58812;47.698;17.726;2022-07-06T07:38:48;100555.97;;;23.87;49.41
71145;BME280;58812;47.698;17.726;2022-07-06T07:41:13;100552.31;;;24.11;49.66
71145;BME280;58812;47.698;17.726;2022-07-06T07:43:39;100556.38;;;24.87;47.81
71145;BME280;58812;47.698;17.726;2022-07-06T07:46:04;100555.09;;;25.01;46.70
71145;BME280;58812;47.698;17.726;2022-07-06T07:48:29;100552.84;;;25.52;46.14
71145;BME280;58812;47.698;17.726;2022-07-06T07:50:55;100560.69;;;25.60;45.05
71145;BME280;58812;47.698;17.726;2022-07-06T07:53:20;100557.19;;;25.18;45.20
71145;BME280;58812;47.698;17.726;2022-07-06T07:55:46;100557.25;;;24.99;45.37
71145;BME280;58812;47.698;17.726;2022-07-06T07:58:11;100563.50;;;25.07;45.39
71145;BME280;58812;47.698;17.726;2022-07-06T08:00:37;100561.88;;;25.29;45.34
71145;BME280;58812;47.698;17.726;2022-07-06T08:03:02;100559.03;;;26.06;44.11
71145;BME280;58812;47.698;17.726;2022-07-06T08:05:28;100565.13;;;25.84;44.67
71145;BME280;58812;47.698;17.726;2022-07-06T08:07:53;100566.88;;;25.67;44.59
71145;BME280;58812;47.698;17.726;2022-07-06T08:10:19;100571.34;;;26.03;44.29
71145;BME280;58812;47.698;17.726;2022-07-06T08:12:45;100574.47;;;26.76;42.88
71145;BME280;58812;47.698;17.726;2022-07-06T08:15:10;100574.91;;;25.92;43.28
71145;BME280;58812;47.698;17.726;2022-07-06T08:17:36;100570.38;;;26.50;42.17
71145;BME280;58812;47.698;17.726;2022-07-06T08:20:01;100575.87;;;26.78;41.52
71145;BME280;58812;47.698;17.726;2022-07-06T08:22:27;100575.50;;;26.86;41.81
71145;BME280;58812;47.698;17.726;2022-07-06T08:24:54;100565.19;;;26.94;40.54
71145;BME280;58812;47.698;17.726;2022-07-06T08:27:20;100568.16;;;26.75;40.90
71145;BME280;58812;47.698;17.726;2022-07-06T08:29:45;100568.75;;;27.23;39.82
71145;BME280;58812;47.698;17.726;2022-07-06T08:32:11;100558.00;;;27.21;40.15
71145;BME280;58812;47.698;17.726;2022-07-06T08:34:36;100559.91;;;26.47;41.06
71145;BME280;58812;47.698;17.726;2022-07-06T08:37:02;100571.88;;;26.69;40.93
71145;BME280;58812;47.698;17.726;2022-07-06T08:39:27;100576.37;;;28.05;38.66
71145;BME280;58812;47.698;17.726;2022-07-06T08:41:55;100571.00;;;27.26;39.19
71145;BME280;58812;47.698;17.726;2022-07-06T08:44:23;100573.84;;;27.02;38.91
71145;BME280;58812;47.698;17.726;2022-07-06T08:46:49;100580.25;;;27.36;37.83
71145;BME280;58812;47.698;17.726;2022-07-06T08:49:17;100574.56;;;27.60;38.18
71145;BME280;58812;47.698;17.726;2022-07-06T08:51:42;100576.06;;;27.84;38.03
71145;BME280;58812;47.698;17.726;2022-07-06T08:54:10;100579.06;;;28.00;37.60
71145;BME280;58812;47.698;17.726;2022-07-06T08:56:36;100577.09;;;27.28;37.62
71145;BME280;58812;47.698;17.726;2022-07-06T08:59:02;100578.81;;;28.23;37.36
71145;BME280;58812;47.698;17.726;2022-07-06T09:01:28;100570.88;;;28.05;36.31
71145;BME280;58812;47.698;17.726;2022-07-06T09:03:55;100581.22;;;28.58;34.97
71145;BME280;58812;47.698;17.726;2022-07-06T09:06:25;100577.16;;;28.66;35.99
71145;BME280;58812;47.698;17.726;2022-07-06T09:08:54;100582.09;;;28.42;35.44
71145;BME280;58812;47.698;17.726;2022-07-06T09:11:24;100583.06;;;27.08;36.02
71145;BME280;58812;47.698;17.726;2022-07-06T09:13:50;100589.63;;;28.30;34.88
71145;BME280;58812;47.698;17.726;2022-07-06T09:16:17;100573.25;;;27.79;35.72
71145;BME280;58812;47.698;17.726;2022-07-06T09:18:46;100571.22;;;27.91;35.27
71145;BME280;58812;47.698;17.726;2022-07-06T09:21:22;100578.75;;;28.62;35.06
71145;BME280;58812;47.698;17.726;2022-07-06T09:23:53;100576.88;;;28.02;35.12
71145;BME280;58812;47.698;17.726;2022-07-06T09:26:19;100580.06;;;28.81;33.79
71145;BME280;58812;47.698;17.726;2022-07-06T09:28:45;100574.91;;;28.63;33.92
71145;BME280;58812;47.698;17.726;2022-07-06T09:31:11;100575.06;;;28.78;33.34
71145;BME280;58812;47.698;17.726;2022-07-06T09:33:37;100574.75;;;28.47;33.89
71145;BME280;58812;47.698;17.726;2022-07-06T09:36:04;100575.41;;;29.09;33.21
71145;BME280;58812;47.698;17.726;2022-07-06T09:38:31;100566.97;;;29.20;32.70
71145;BME280;58812;47.698;17.726;2022-07-06T09:40:56;100567.47;;;28.90;33.52
71145;BME280;58812;47.698;17.726;2022-07-06T09:43:23;100577.13;;;29.84;32.82
71145;BME280;58812;47.698;17.726;2022-07-06T09:45:51;100566.37;;;29.88;32.96
71145;BME280;58812;47.698;17.726;2022-07-06T09:48:21;100571.03;;;29.77;31.72
71145;BME280;58812;47.698;17.726;2022-07-06T09:50:50;100562.37;;;30.11;31.43
71145;BME280;58812;47.698;17.726;2022-07-06T09:53:16;100577.06;;;29.74;31.07
71145;BME280;58812;47.698;17.726;2022-07-06T09:55:46;100571.28;;;29.11;31.64
71145;BME280;58812;47.698;17.726;2022-07-06T09:58:12;100573.66;;;29.62;31.64
71145;BME280;58812;47.698;17.726;2022-07-06T10:00:38;100563.31;;;30.31;31.06
71145;BME280;58812;47.698;17.726;2022-07-06T10:03:05;100567.75;;;29.85;31.24
71145;BME280;58812;47.698;17.726;2022-07-06T10:05:32;100564.84;;;30.07;31.57
71145;BME280;58812;47.698;17.726;2022-07-06T10:07:59;100565.09;;;30.00;31.28
71145;BME280;58812;47.698;17.726;2022-07-06T10:10:26;100568.97;;;29.62;31.74
71145;BME280;58812;47.698;17.726;2022-07-06T10:12:55;100561.63;;;30.25;30.74
71145;BME280;58812;47.698;17.726;2022-07-06T10:15:22;100572.78;;;29.98;30.68
71145;BME280;58812;47.698;17.726;2022-07-06T10:17:49;100570.62;;;29.63;30.51
71145;BME280;58812;47.698;17.726;2022-07-06T10:20:16;100561.34;;;30.22;30.27
71145;BME280;58812;47.698;17.726;2022-07-06T10:22:42;100566.09;;;29.84;30.22
71145;BME280;58812;47.698;17.726;2022-07-06T10:25:08;100565.13;;;29.63;30.37
71145;BME280;58812;47.698;17.726;2022-07-06T10:27:34;100553.50;;;30.03;29.95
71145;BME280;58812;47.698;17.726;2022-07-06T10:30:00;100559.91;;;29.67;29.93
71145;BME280;58812;47.698;17.726;2022-07-06T10:32:26;100561.00;;;30.81;29.23
71145;BME280;58812;47.698;17.726;2022-07-06T10:34:53;100564.56;;;30.76;29.52
71145;BME280;58812;47.698;17.726;2022-07-06T10:37:26;100573.91;;;30.60;29.82
71145;BME280;58812;47.698;17.726;2022-07-06T10:39:53;100565.59;;;29.97;29.57
71145;BME280;58812;47.698;17.726;2022-07-06T10:42:41;100565.87;;;30.58;29.69
71145;BME280;58812;47.698;17.726;2022-07-06T10:45:08;100565.09;;;30.00;29.76
71145;BME280;58812;47.698;17.726;2022-07-06T10:47:34;100557.34;;;30.02;29.43
71145;BME280;58812;47.698;17.726;2022-07-06T10:50:00;100554.41;;;30.14;29.05
71145;BME280;58812;47.698;17.726;2022-07-06T10:52:52;100563.22;;;30.89;29.37
71145;BME280;58812;47.698;17.726;2022-07-06T10:55:52;100560.19;;;30.18;28.99
71145;BME280;58812;47.698;17.726;2022-07-06T10:58:40;100554.66;;;31.06;27.89
71145;BME280;58812;47.698;17.726;2022-07-06T11:01:06;100567.38;;;30.87;27.48
71145;BME280;58812;47.698;17.726;2022-07-06T11:06:24;100562.97;;;30.13;29.17
71145;BME280;58812;47.698;17.726;2022-07-06T11:14:20;100568.19;;;30.72;29.14
71145;BME280;58812;47.698;17.726;2022-07-06T11:19:16;100580.00;;;30.67;29.04
71145;BME280;58812;47.698;17.726;2022-07-06T11:21:53;100570.81;;;29.19;29.59
71145;BME280;58812;47.698;17.726;2022-07-06T11:26:48;100575.94;;;30.95;28.78
71145;BME280;58812;47.698;17.726;2022-07-06T11:29:16;100569.88;;;30.98;29.35
71145;BME280;58812;47.698;17.726;2022-07-06T11:31:44;100579.50;;;29.65;31.13
71145;BME280;58812;47.698;17.726;2022-07-06T11:34:12;100585.47;;;29.99;31.47
71145;BME280;58812;47.698;17.726;2022-07-06T11:36:39;100582.06;;;29.82;31.72
71145;BME280;58812;47.698;17.726;2022-07-06T11:39:06;100579.25;;;30.14;31.21
71145;BME280;58812;47.698;17.726;2022-07-06T11:41:33;100581.19;;;29.39;32.39
71145;BME280;58812;47.698;17.726;2022-07-06T11:43:58;100578.38;;;30.09;30.64
71145;BME280;58812;47.698;17.726;2022-07-06T11:46:28;100581.66;;;29.63;30.84
71145;BME280;58812;47.698;17.726;2022-07-06T11:49:04;100579.47;;;30.70;29.08
71145;BME280;58812;47.698;17.726;2022-07-06T11:51:32;100567.09;;;30.15;29.18
71145;BME280;58812;47.698;17.726;2022-07-06T11:54:08;100570.78;;;30.41;29.15
71145;BME280;58812;47.698;17.726;2022-07-06T11:56:34;100570.13;;;29.66;27.42
71145;BME280;58812;47.698;17.726;2022-07-06T11:59:00;100565.97;;;30.11;26.53
71145;BME280;58812;47.698;17.726;2022-07-06T12:01:30;100575.16;;;30.22;27.27
71145;BME280;58812;47.698;17.726;2022-07-06T12:04:00;100567.34;;;29.34;28.55
71145;BME280;58812;47.698;17.726;2022-07-06T12:06:26;100563.53;;;29.40;29.12
71145;BME280;58812;47.698;17.726;2022-07-06T12:08:55;100567.09;;;30.98;27.07
71145;BME280;58812;47.698;17.726;2022-07-06T12:11:30;100571.47;;;30.69;28.46
71145;BME280;58812;47.698;17.726;2022-07-06T12:14:12;100562.75;;;30.24;29.58
71145;BME280;58812;47.698;17.726;2022-07-06T12:16:38;100561.53;;;30.83;29.25
71145;BME280;58812;47.698;17.726;2022-07-06T12:19:05;100546.47;;;30.33;30.28
71145;BME280;58812;47.698;17.726;2022-07-06T12:21:34;100542.37;;;29.93;31.05
71145;BME280;58812;47.698;17.726;2022-07-06T12:23:59;100546.50;;;29.16;32.58
71145;BME280;58812;47.698;17.726;2022-07-06T12:26:27;100545.53;;;29.65;31.85
71145;BME280;58812;47.698;17.726;2022-07-06T12:29:03;100546.09;;;29.67;32.39
71145;BME280;58812;47.698;17.726;2022-07-06T12:31:42;100539.38;;;30.63;30.76
71145;BME280;58812;47.698;17.726;2022-07-06T12:34:19;100546.91;;;30.88;29.96
71145;BME280;58812;47.698;17.726;2022-07-06T12:36:48;100549.19;;;31.26;30.55
71145;BME280;58812;47.698;17.726;2022-07-06T12:39:16;100547.06;;;30.45;30.22
71145;BME280;58812;47.698;17.726;2022-07-06T12:41:51;100543.38;;;31.28;29.61
71145;BME280;58812;47.698;17.726;2022-07-06T12:44:19;100536.56;;;30.47;30.21
71145;BME280;58812;47.698;17.726;2022-07-06T12:46:45;100537.41;;;30.53;31.37
71145;BME280;58812;47.698;17.726;2022-07-06T12:49:19;100528.78;;;29.39;32.14
71145;BME280;58812;47.698;17.726;2022-07-06T12:51:48;100536.22;;;29.71;31.74
71145;BME280;58812;47.698;17.726;2022-07-06T12:54:16;100538.03;;;28.69;33.49